Time;durP1;ratioP1;P1;durP2;ratioP2;P2;SDS_P1;SDS_P2;PMS_P1;PMS_P2;Temp;Humidity;BMP_temperature;BMP_pressure;BME280_temperature;BME280_humidity;BME280_pressure;Samples;Min_cycle;Max_cycle;Signal;HPM_P1;HPM_P2
2022/08/31 00:05:26;;;;;;;16.35;10.93;;;;;;;23.57;71.85;101074.44;4969781;28;20168;-82
2022/08/31 00:07:53;;;;;;;13.45;10.27;;;;;;;23.46;71.81;101067.81;4968173;28;20600;-83
2022/08/31 00:10:26;;;;;;;17.13;13.18;;;;;;;23.29;72.95;101039.50;4968214;28;20267;-83
2022/08/31 00:12:59;;;;;;;12.45;11.15;;;;;;;23.64;72.61;101094.25;4968679;28;20066;-83
2022/08/31 00:15:26;;;;;;;13.65;9.77;;;;;;;23.27;72.25;101019.91;4969650;28;20058;-83
2022/08/31 00:17:55;;;;;;;17.27;10.50;;;;;;;23.53;72.83;101079.47;4973270;28;20160;-82
2022/08/31 00:20:22;;;;;;;13.43;10.32;;;;;;;23.27;71.33;100990.94;4973226;28;20054;-83
2022/08/31 00:23:11;;;;;;;14.07;9.27;;;;;;;23.88;70.50;101071.94;4983467;28;20057;-83
2022/08/31 00:25:40;;;;;;;12.40;8.88;;;;;;;23.85;70.11;101066.94;4967318;28;20768;-82
2022/08/31 00:28:08;;;;;;;15.02;10.40;;;;;;;23.83;72.43;101069.00;4967793;28;20132;-82
2022/08/31 00:30:35;;;;;;;13.23;8.73;;;;;;;23.81;72.20;101071.13;4982378;28;20053;-84
2022/08/31 00:33:03;;;;;;;9.52;8.05;;;;;;;23.77;72.93;101077.19;4970746;28;20477;-82
2022/08/31 00:35:32;;;;;;;10.48;8.75;;;;;;;23.75;72.72;101071.13;4988523;28;20584;-83
2022/08/31 00:37:59;;;;;;;9.30;7.60;;;;;;;23.65;72.39;101045.25;4988536;28;20525;-82
2022/08/31 00:40:26;;;;;;;9.88;7.72;;;;;;;23.80;73.25;101057.78;4970234;28;20136;-84
2022/08/31 00:42:53;;;;;;;8.93;7.75;;;;;;;23.74;73.78;101066.75;4988572;28;20142;-82
2022/08/31 00:45:20;;;;;;;14.68;9.98;;;;;;;23.68;73.62;101065.69;4970346;28;20058;-82
2022/08/31 00:47:47;;;;;;;10.60;8.15;;;;;;;23.49;73.43;101039.47;4970827;28;20433;-82
2022/08/31 00:50:18;;;;;;;11.05;8.73;;;;;;;23.30;73.23;101008.63;4987971;28;20045;-82
2022/08/31 00:52:49;;;;;;;14.07;9.48;;;;;;;23.65;73.96;101061.53;4970954;28;20381;-83
2022/08/31 00:55:35;;;;;;;12.40;8.85;;;;;;;23.61;73.84;101071.13;4988877;28;20545;-83
2022/08/31 00:58:06;;;;;;;13.77;9.80;;;;;;;23.60;74.03;101074.88;4970464;28;20136;-82
2022/08/31 01:00:33;;;;;;;;;;;;;;;23.58;73.13;101066.13;4970441;28;20192;-81
2022/08/31 01:03:02;;;;;;;14.77;10.48;;;;;;;23.33;73.88;101035.34;4966605;28;20585;-82
2022/08/31 01:05:29;;;;;;;10.10;8.45;;;;;;;23.36;74.22;101018.66;4967289;28;20082;-81
2022/08/31 01:07:58;;;;;;;10.45;8.75;;;;;;;23.65;74.40;101061.53;4967259;28;20395;-82
2022/08/31 01:10:38;;;;;;;10.55;9.48;;;;;;;23.52;74.70;101050.72;4968552;28;20046;-81
2022/08/31 01:13:06;;;;;;;10.48;8.70;;;;;;;23.20;74.97;100993.66;4967259;28;20569;-81
2022/08/31 01:15:34;;;;;;;12.75;8.77;;;;;;;23.38;74.63;101013.84;4966562;28;20054;-81
2022/08/31 01:18:03;;;;;;;11.50;9.20;;;;;;;23.61;75.55;101065.69;4967168;28;20496;-80
2022/08/31 01:20:48;;;;;;;20.23;10.32;;;;;;;23.57;75.33;101071.75;4965127;28;20586;-83
2022/08/31 01:23:21;;;;;;;13.98;10.43;;;;;;;23.51;75.74;101073.44;4968651;28;20462;-83
2022/08/31 01:25:48;;;;;;;10.52;9.15;;;;;;;23.45;75.42;101068.88;4965824;28;20165;-83
2022/08/31 01:28:15;;;;;;;14.43;10.88;;;;;;;23.39;75.60;101061.56;4966219;28;20109;-82
2022/08/31 01:30:43;;;;;;;13.23;9.90;;;;;;;23.27;75.85;101047.00;4950746;28;20057;-81
2022/08/31 01:33:12;;;;;;;11.63;10.00;;;;;;;23.16;75.81;101040.34;4946437;28;20561;-81
2022/08/31 01:35:43;;;;;;;15.43;11.15;;;;;;;23.27;75.65;101060.53;4946544;28;20054;-83
2022/08/31 01:38:12;;;;;;;12.18;9.23;;;;;;;23.48;75.09;101076.56;4948789;28;20549;-83
2022/08/31 01:40:48;;;;;;;19.23;10.98;;;;;;;23.42;76.50;101077.38;4946041;28;20451;-82
2022/08/31 01:43:15;;;;;;;16.80;10.48;;;;;;;22.34;76.37;100909.75;4946277;28;21412;-84
2022/08/31 01:45:42;;;;;;;14.32;9.50;;;;;;;23.44;75.96;101083.44;4946951;28;20514;-83
2022/08/31 01:48:10;;;;;;;14.68;9.80;;;;;;;23.49;75.40;101083.63;4946893;28;20481;-83
2022/08/31 01:50:37;;;;;;;13.27;9.60;;;;;;;23.43;75.69;101087.19;4946407;28;20133;-84
2022/08/31 01:53:04;;;;;;;14.90;10.57;;;;;;;23.21;76.11;101062.22;4946849;28;20051;-82
2022/08/31 01:55:31;;;;;;;15.45;10.57;;;;;;;23.31;76.11;101088.88;4948629;28;20133;-84
2022/08/31 01:57:59;;;;;;;16.48;10.55;;;;;;;23.20;76.16;101074.91;4945088;28;20093;-83
2022/08/31 02:00:27;;;;;;;20.05;11.45;;;;;;;23.35;76.14;101087.41;4945120;28;20649;-83
2022/08/31 02:02:57;;;;;;;15.57;11.07;;;;;;;23.42;76.15;101105.34;4973443;28;20094;-84
2022/08/31 02:05:24;;;;;;;17.88;12.43;;;;;;;22.67;75.55;100999.06;4965291;28;20069;-81
2022/08/31 02:07:51;;;;;;;22.10;12.68;;;;;;;23.33;75.32;101106.59;4965668;28;20136;-83
2022/08/31 02:10:18;;;;;;;16.48;12.75;;;;;;;22.38;75.54;100963.22;4966243;28;20058;-83
2022/08/31 02:12:44;;;;;;;18.48;12.27;;;;;;;23.12;75.68;101085.94;4967374;28;20514;-81
2022/08/31 02:15:11;;;;;;;16.88;12.02;;;;;;;23.28;75.59;101102.81;4965472;28;20124;-83
2022/08/31 02:17:38;;;;;;;16.88;12.00;;;;;;;23.34;75.65;101104.72;4967377;28;20089;-82
2022/08/31 02:20:08;;;;;;;19.63;12.90;;;;;;;23.33;75.57;101100.34;4966220;28;20062;-82
2022/08/31 02:22:35;;;;;;;23.85;12.68;;;;;;;23.41;75.84;101100.13;4970497;28;20058;-82
2022/08/31 02:25:04;;;;;;;22.38;14.10;;;;;;;23.30;75.45;101087.19;4971662;28;20105;-83
2022/08/31 02:27:35;;;;;;;20.75;14.57;;;;;;;23.30;75.25;101096.16;4967578;28;20520;-82
2022/08/31 02:30:09;;;;;;;24.17;14.50;;;;;;;23.28;75.28;101102.81;4946772;28;20573;-83
2022/08/31 02:32:36;;;;;;;20.13;15.35;;;;;;;23.33;75.40;101116.59;4928722;29;20134;-83
2022/08/31 02:35:03;;;;;;;23.15;15.30;;;;;;;23.28;75.18;101116.34;4926735;29;20047;-83
2022/08/31 02:37:30;;;;;;;22.13;16.17;;;;;;;23.27;74.79;101117.41;4926999;29;20534;-82
2022/08/31 02:39:57;;;;;;;20.98;14.45;;;;;;;23.29;74.92;101104.50;4926734;29;20212;-82
2022/08/31 02:42:25;;;;;;;20.10;14.60;;;;;;;23.18;74.93;101101.38;4926379;29;20047;-83
2022/08/31 02:44:58;;;;;;;18.17;14.30;;;;;;;23.23;74.62;101107.00;4928264;28;20550;-82
2022/08/31 02:47:26;;;;;;;24.38;16.80;;;;;;;22.91;74.54;101064.44;4928220;28;20519;-83
2022/08/31 02:49:52;;;;;;;18.67;14.30;;;;;;;23.25;74.98;101112.19;4925756;28;20857;-82
2022/08/31 02:52:19;;;;;;;20.05;14.52;;;;;;;23.44;74.60;101121.38;4926002;29;20138;-83
2022/08/31 02:54:45;;;;;;;21.67;13.70;;;;;;;23.42;74.08;101118.03;4926171;28;20058;-83
2022/08/31 02:57:12;;;;;;;20.80;16.02;;;;;;;23.10;74.24;101074.47;4927425;28;20534;-83
2022/08/31 02:59:39;;;;;;;21.15;14.68;;;;;;;23.41;74.49;101128.03;4928118;28;20127;-83
2022/08/31 03:02:06;;;;;;;16.98;13.25;;;;;;;23.35;75.22;101139.72;4938980;28;20173;-82
2022/08/31 03:04:33;;;;;;;25.75;14.30;;;;;;;23.27;75.12;101122.84;4964857;28;20597;-82
2022/08/31 03:07:00;;;;;;;25.63;14.73;;;;;;;23.01;75.06;101078.44;4966288;28;20280;-82
2022/08/31 03:09:27;;;;;;;26.42;14.82;;;;;;;23.24;75.29;101122.19;4964549;28;20104;-84
2022/08/31 03:11:54;;;;;;;14.70;12.55;;;;;;;23.27;75.41;101139.09;4965238;28;20054;-81
2022/08/31 03:14:20;;;;;;;17.27;15.20;;;;;;;23.21;75.41;101128.03;4964366;28;20165;-81
2022/08/31 03:16:47;;;;;;;17.75;14.32;;;;;;;23.12;75.48;101104.06;4964566;28;20481;-83
2022/08/31 03:19:17;;;;;;;17.05;11.85;;;;;;;23.39;74.80;101126.59;4964299;28;20057;-83
2022/08/31 03:21:46;;;;;;;15.60;11.75;;;;;;;23.44;75.07;101130.31;4964238;28;20540;-82
2022/08/31 03:24:20;;;;;;;28.05;13.20;;;;;;;23.03;76.11;101074.50;4966093;28;20057;-83
2022/08/31 03:26:48;;;;;;;30.63;14.63;;;;;;;23.19;77.86;101105.75;4964822;28;20054;-83
2022/08/31 03:29:15;;;;;;;20.05;14.13;;;;;;;23.09;78.71;101101.78;4965488;28;20117;-84
2022/08/31 03:31:42;;;;;;;19.35;13.73;;;;;;;23.27;78.43;101139.09;4964145;28;20082;-83
2022/08/31 03:34:09;;;;;;;18.15;14.02;;;;;;;23.20;78.34;101133.66;4965527;28;20136;-82
2022/08/31 03:36:35;;;;;;;17.08;12.82;;;;;;;23.15;80.29;101126.16;4965430;28;20499;-84
2022/08/31 03:39:03;;;;;;;20.58;12.40;;;;;;;23.10;79.89;101123.22;4966075;28;20608;-85
2022/08/31 03:41:30;;;;;;;16.90;13.23;;;;;;;22.58;80.74;101038.16;4966530;28;20551;-86
2022/08/31 03:44:00;;;;;;;16.35;12.95;;;;;;;23.02;81.03;101093.66;4966241;28;20141;-85
2022/08/31 03:46:32;;;;;;;22.85;13.85;;;;;;;23.04;81.13;101086.16;4966784;28;20062;-86
2022/08/31 03:49:03;;;;;;;21.90;12.82;;;;;;;23.03;82.83;101095.31;4968619;28;20226;-86
2022/08/31 03:51:29;;;;;;;16.38;13.02;;;;;;;22.94;82.32;101083.00;4983169;28;20439;-87
2022/08/31 03:53:56;;;;;;;21.10;15.27;;;;;;;23.01;83.45;101102.78;4966730;28;20157;-86
2022/08/31 03:56:23;;;;;;;17.05;12.93;;;;;;;22.18;81.36;100967.72;4968724;28;20132;-86
2022/08/31 03:58:50;;;;;;;17.83;13.48;;;;;;;22.17;82.72;100982.28;4967213;28;20061;-84
2022/08/31 04:01:17;;;;;;;21.20;14.38;;;;;;;22.49;82.36;101042.09;4966352;28;20429;-86
2022/08/31 04:03:44;;;;;;;22.20;17.17;;;;;;;22.24;82.81;101010.19;4969492;28;20053;-85
2022/08/31 04:06:12;;;;;;;22.38;14.98;;;;;;;22.06;82.66;100964.75;4989705;28;20061;-87
2022/08/31 04:08:39;;;;;;;22.92;16.40;;;;;;;22.17;82.43;100971.47;4971063;28;20513;-84
2022/08/31 04:11:09;;;;;;;24.20;13.80;;;;;;;22.62;81.74;101047.53;4984986;28;20170;-87
2022/08/31 04:13:37;;;;;;;19.50;14.05;;;;;;;23.13;80.52;101122.84;4969508;28;20054;-84
2022/08/31 04:16:07;;;;;;;18.90;12.05;;;;;;;22.61;79.99;101032.34;4987363;28;20136;-84
2022/08/31 04:18:37;;;;;;;17.38;12.38;;;;;;;23.18;81.10;101120.34;4969567;28;20085;-85
2022/08/31 04:21:04;;;;;;;19.35;13.10;;;;;;;22.22;81.91;100982.53;4986450;28;20065;-84
2022/08/31 04:23:31;;;;;;;21.85;15.23;;;;;;;22.30;82.92;100998.56;4987100;28;20104;-84
2022/08/31 04:25:57;;;;;;;18.48;15.00;;;;;;;23.11;82.22;101118.63;4976042;28;20183;-84
2022/08/31 04:28:24;;;;;;;23.65;13.90;;;;;;;22.77;82.04;101064.44;4976016;28;20141;-83
2022/08/31 04:30:51;;;;;;;18.77;14.73;;;;;;;23.16;83.04;101127.81;4989909;28;20117;-83
2022/08/31 04:33:18;;;;;;;18.15;14.93;;;;;;;23.07;82.10;101107.41;4972789;28;20084;-84
2022/08/31 04:35:53;;;;;;;23.27;15.65;;;;;;;22.99;82.02;101094.06;4971363;28;20132;-84
2022/08/31 04:38:20;;;;;;;27.80;17.83;;;;;;;22.03;82.00;100932.72;4970869;28;20136;-84
2022/08/31 04:40:47;;;;;;;23.60;16.50;;;;;;;22.70;82.42;101050.06;4970262;28;20196;-84
2022/08/31 04:43:17;;;;;;;18.10;14.87;;;;;;;22.51;82.05;101029.22;4989061;28;20576;-84
2022/08/31 04:45:49;;;;;;;20.52;15.20;;;;;;;23.15;82.00;101147.81;4970913;28;20396;-82
2022/08/31 04:48:15;;;;;;;30.70;17.40;;;;;;;23.17;81.86;101140.31;4970540;28;20306;-83
2022/08/31 04:50:42;;;;;;;22.98;16.00;;;;;;;23.20;81.59;101145.31;4988799;28;20057;-84
2022/08/31 04:53:09;;;;;;;27.90;17.30;;;;;;;23.12;81.42;101136.56;4970979;28;20052;-84
2022/08/31 04:55:41;;;;;;;23.02;16.65;;;;;;;23.06;81.06;101113.88;4970347;28;20057;-83
2022/08/31 04:58:12;;;;;;;20.98;16.08;;;;;;;23.23;81.47;101127.84;4970497;28;20049;-84
2022/08/31 05:00:42;;;;;;;23.25;16.77;;;;;;;23.16;80.45;101135.13;4970053;28;20590;-84
2022/08/31 05:03:09;;;;;;;27.70;18.13;;;;;;;22.81;80.92;101089.19;4970580;28;20061;-84
2022/08/31 05:05:37;;;;;;;20.27;15.48;;;;;;;22.95;81.67;101119.84;4970579;28;20172;-84
2022/08/31 05:08:04;;;;;;;28.25;20.02;;;;;;;22.75;81.03;101088.16;4970113;28;20141;-83
2022/08/31 05:10:31;;;;;;;22.90;18.27;;;;;;;23.02;80.78;101099.06;4969344;28;20089;-83
2022/08/31 05:12:58;;;;;;;21.80;17.98;;;;;;;23.05;80.80;101095.94;4971151;28;20638;-84
2022/08/31 05:15:25;;;;;;;25.20;16.98;;;;;;;22.53;81.45;101029.84;4986323;28;20395;-83
2022/08/31 05:17:51;;;;;;;24.40;16.55;;;;;;;22.88;81.47;101097.34;4987237;28;20057;-84
2022/08/31 05:20:18;;;;;;;26.73;19.55;;;;;;;22.71;81.83;101062.53;4986316;28;20603;-85
2022/08/31 05:22:44;;;;;;;28.10;18.02;;;;;;;23.03;81.15;101117.81;4969445;28;20132;-84
2022/08/31 05:25:11;;;;;;;25.92;17.52;;;;;;;22.94;80.45;101112.78;4970286;28;20049;-84
2022/08/31 05:27:40;;;;;;;32.08;19.38;;;;;;;23.05;81.69;101136.56;4970721;28;20049;-83
2022/08/31 05:30:08;;;;;;;24.67;19.08;;;;;;;22.29;80.83;101021.25;4978500;28;20050;-84
2022/08/31 05:32:34;;;;;;;25.33;18.92;;;;;;;22.58;79.81;101065.22;4969506;28;20490;-83
2022/08/31 05:35:05;;;;;;;30.83;19.52;;;;;;;23.10;80.03;101163.84;4970066;28;20050;-81
2022/08/31 05:37:32;;;;;;;29.88;21.60;;;;;;;23.03;79.22;101146.75;4970628;28;20058;-83
2022/08/31 05:39:59;;;;;;;33.60;22.55;;;;;;;23.01;79.21;101156.94;4970846;28;20054;-83
2022/08/31 05:42:25;;;;;;;30.63;22.75;;;;;;;23.03;78.60;101157.59;4968595;28;20633;-82
2022/08/31 05:44:52;;;;;;;33.22;22.90;;;;;;;23.07;79.90;101149.91;4970241;28;20053;-84
2022/08/31 05:47:19;;;;;;;40.03;27.20;;;;;;;22.59;78.23;101077.72;4969191;28;20054;-83
2022/08/31 05:49:46;;;;;;;38.13;25.00;;;;;;;23.10;78.98;101150.31;4969397;28;20058;-84
2022/08/31 05:52:14;;;;;;;42.42;26.35;;;;;;;22.92;78.22;101136.50;4969399;28;20061;-83
2022/08/31 05:54:41;;;;;;;37.92;26.60;;;;;;;23.08;78.66;101165.91;4986742;28;20259;-83
2022/08/31 05:57:07;;;;;;;36.95;26.30;;;;;;;22.89;78.71;101136.91;4985949;28;20046;-82
2022/08/31 05:59:36;;;;;;;45.25;28.92;;;;;;;22.82;77.30;101126.06;4968585;28;20561;-83
2022/08/31 06:02:04;;;;;;;42.80;31.05;;;;;;;23.16;77.41;101186.59;4969309;28;20069;-85
2022/08/31 06:04:31;;;;;;;40.40;26.65;;;;;;;23.01;76.74;101122.59;4986854;28;20081;-84
2022/08/31 06:06:57;;;;;;;39.63;30.23;;;;;;;23.25;76.62;101152.81;4968574;28;20058;-83
2022/08/31 06:09:24;;;;;;;37.88;25.63;;;;;;;22.50;76.59;101020.25;4986310;28;20076;-82
2022/08/31 06:11:52;;;;;;;38.33;25.80;;;;;;;23.35;77.22;101155.13;4968436;28;20049;-82
2022/08/31 06:14:21;;;;;;;40.05;25.77;;;;;;;23.09;77.32;101126.16;4969419;28;20136;-82
2022/08/31 06:16:55;;;;;;;44.78;24.15;;;;;;;22.86;77.45;101083.19;4968180;28;20488;-83
2022/08/31 06:19:22;;;;;;;38.33;25.70;;;;;;;23.09;77.43;101102.63;4985965;28;20061;-83
2022/08/31 06:21:50;;;;;;;36.90;27.00;;;;;;;23.29;75.53;101132.41;4968298;28;20527;-82
2022/08/31 06:24:18;;;;;;;39.38;25.73;;;;;;;23.39;76.24;101135.53;4969458;28;20085;-83
2022/08/31 06:26:51;;;;;;;41.83;27.98;;;;;;;23.43;76.68;101144.94;4986833;28;20069;-84
2022/08/31 06:29:23;;;;;;;51.60;30.25;;;;;;;23.51;77.04;101152.00;4973497;28;20250;-82
2022/08/31 06:31:58;;;;;;;50.20;31.13;;;;;;;23.58;75.99;101143.88;4974332;28;20061;-84
2022/08/31 06:34:25;;;;;;;;;;;;;;;23.63;75.12;101144.91;4971076;28;20139;-83
2022/08/31 06:36:52;;;;;;;50.33;32.45;;;;;;;23.50;74.44;101107.00;4986416;28;19925;-84
2022/08/31 06:39:19;;;;;;;55.85;32.15;;;;;;;23.01;75.14;101026.97;4968175;28;20065;-83
2022/08/31 06:41:47;;;;;;;51.83;33.63;;;;;;;23.36;73.98;101073.66;4985681;28;20461;-83
2022/08/31 06:44:14;;;;;;;51.63;32.85;;;;;;;23.25;73.71;101056.16;4967981;28;20555;-85
2022/08/31 06:46:51;;;;;;;52.55;33.97;;;;;;;24.02;73.15;101148.66;4968264;28;20054;-82
2022/08/31 06:49:26;;;;;;;47.90;32.28;;;;;;;23.86;73.10;101130.09;4967674;28;20081;-83
2022/08/31 06:51:52;;;;;;;54.55;35.45;;;;;;;23.83;74.62;101131.38;4964421;28;20605;-82
2022/08/31 06:54:20;;;;;;;47.67;31.98;;;;;;;23.73;73.94;101120.13;4964535;28;20490;-80
2022/08/31 06:56:57;;;;;;;48.08;34.83;;;;;;;24.08;74.46;101169.50;4964044;28;20528;-79
2022/08/31 06:59:27;;;;;;;46.55;36.38;;;;;;;24.17;71.96;101144.84;4965361;28;20212;-78
2022/08/31 07:01:57;;;;;;;54.95;39.45;;;;;;;24.23;72.08;101160.28;4967047;28;20068;-80
2022/08/31 07:04:25;;;;;;;39.03;27.73;;;;;;;24.05;73.51;101175.34;4966636;28;20066;-82
2022/08/31 07:06:52;;;;;;;51.38;33.28;;;;;;;23.97;74.10;101167.44;4964024;28;20065;-81
2022/08/31 07:09:19;;;;;;;53.40;40.67;;;;;;;24.01;72.88;101157.84;4965050;28;20406;-77
2022/08/31 07:11:50;;;;;;;54.28;35.83;;;;;;;23.94;73.09;101153.47;4964616;28;20069;-81
2022/08/31 07:14:23;;;;;;;53.72;41.20;;;;;;;23.97;74.12;101170.16;4964014;28;20592;-80
2022/08/31 07:16:52;;;;;;;61.15;40.47;;;;;;;23.66;74.45;101117.38;4964071;28;20138;-81
2022/08/31 07:19:20;;;;;;;31.15;24.13;;;;;;;24.06;73.88;101163.47;4964557;28;20055;-78
2022/08/31 07:21:59;;;;;;;55.17;36.25;;;;;;;24.24;72.76;101145.66;4965341;28;20826;-77
2022/08/31 07:24:32;;;;;;;34.75;26.88;;;;;;;24.45;72.34;101169.81;4964684;28;20096;-78
2022/08/31 07:27:08;;;;;;;51.60;34.95;;;;;;;24.72;70.90;101169.72;4963616;28;20066;-79
2022/08/31 07:29:40;;;;;;;36.25;26.92;;;;;;;24.49;70.39;101130.38;4971226;28;20054;-78
2022/08/31 07:32:14;;;;;;;29.98;24.13;;;;;;;25.25;68.91;101149.59;4967374;28;20049;-80
2022/08/31 07:34:42;;;;;;;46.03;31.55;;;;;;;25.55;66.88;101109.00;4966435;28;20049;-79
2022/08/31 07:42:45;;;;;;;25.50;20.13;;;;;;;25.96;64.37;101094.78;5005608;28;20066;-79
2022/08/31 07:45:23;;;;;;;29.75;20.48;;;;;;;26.33;64.19;101148.38;4988102;28;20500;-79
2022/08/31 07:47:58;;;;;;;22.88;18.42;;;;;;;26.28;64.74;101156.38;4989180;28;20513;-77
2022/08/31 07:50:26;;;;;;;20.52;17.88;;;;;;;26.42;62.87;101134.22;4988439;28;20052;-77
2022/08/31 07:52:54;;;;;;;35.50;25.00;;;;;;;26.10;64.69;101133.56;4987918;28;20042;-78
2022/08/31 07:55:25;;;;;;;29.98;18.02;;;;;;;26.74;62.13;101149.56;4987958;28;20054;-77
2022/08/31 07:57:53;;;;;;;39.95;25.02;;;;;;;26.39;64.29;101169.25;4988316;28;20069;-77
2022/08/31 08:00:31;;;;;;;24.50;17.75;;;;;;;26.19;64.60;101170.31;4999963;28;20073;-78
2022/08/31 08:03:06;;;;;;;22.05;16.88;;;;;;;26.51;62.73;101159.25;4971528;28;20064;-77
2022/08/31 08:05:37;;;;;;;27.30;17.00;;;;;;;26.26;63.57;101147.63;4987331;28;20046;-77
2022/08/31 08:08:05;;;;;;;46.10;31.45;;;;;;;26.30;63.46;101170.59;4988585;28;20065;-77
2022/08/31 08:10:47;;;;;;;23.55;16.83;;;;;;;25.64;64.37;101104.94;4989623;28;20125;-77
2022/08/31 08:13:18;;;;;;;40.08;29.77;;;;;;;25.56;65.89;101155.00;4953052;28;20054;-77
2022/08/31 08:15:47;;;;;;;39.63;28.98;;;;;;;25.27;67.59;101163.78;4960578;28;20054;-81
2022/08/31 08:18:14;;;;;;;23.83;18.50;;;;;;;25.24;67.91;101170.47;4968407;28;20042;-78
2022/08/31 08:20:40;;;;;;;25.73;17.52;;;;;;;25.50;66.85;101146.88;4971805;28;20057;-77
2022/08/31 08:23:13;;;;;;;23.60;18.85;;;;;;;26.09;64.99;101174.59;4971119;28;20748;-80
2022/08/31 08:25:44;;;;;;;33.55;22.92;;;;;;;26.04;65.31;101161.66;4974493;28;20058;-78
2022/08/31 08:28:20;;;;;;;37.97;29.08;;;;;;;25.77;65.98;101159.16;4989571;28;20054;-79
2022/08/31 08:31:12;;;;;;;34.55;28.58;;;;;;;25.55;66.61;101185.94;4974996;28;20414;-78
2022/08/31 08:33:39;;;;;;;21.13;16.77;;;;;;;25.94;65.73;101194.00;4978762;28;20053;-78
2022/08/31 08:36:07;;;;;;;40.80;27.85;;;;;;;26.07;64.29;101153.06;4951644;28;20516;-78
2022/08/31 08:38:39;;;;;;;26.05;19.83;;;;;;;25.75;65.42;101164.03;4969995;28;20171;-77
2022/08/31 08:41:14;;;;;;;24.25;16.10;;;;;;;25.99;65.39;101177.81;4967087;28;20073;-78
2022/08/31 08:43:46;;;;;;;20.13;15.77;;;;;;;25.77;64.17;101107.50;4970109;28;20058;-78
2022/08/31 08:46:26;;;;;;;36.22;26.90;;;;;;;25.89;66.17;101177.53;4971456;28;20492;-78
2022/08/31 08:49:39;;;;;;;35.72;25.83;;;;;;;25.70;66.53;101188.31;4973331;28;20049;-81
2022/08/31 08:52:11;;;;;;;40.30;27.73;;;;;;;25.16;67.84;101135.41;4982619;28;20057;-82
2022/08/31 08:54:43;;;;;;;33.88;25.23;;;;;;;25.25;67.98;101168.63;4985343;28;20062;-81
2022/08/31 08:57:13;;;;;;;35.65;28.08;;;;;;;25.18;68.35;101160.50;4969334;28;20637;-82
2022/08/31 08:59:45;;;;;;;35.42;25.50;;;;;;;25.30;68.96;101166.91;4987746;28;20046;-81
2022/08/31 09:02:57;;;;;;;34.80;25.80;;;;;;;25.33;67.85;101169.16;4968210;28;20070;-80
2022/08/31 09:05:41;;;;;;;36.20;26.23;;;;;;;25.39;68.40;101151.16;4960699;28;20058;-81
2022/08/31 09:08:46;;;;;;;35.20;25.33;;;;;;;25.55;67.15;101174.22;4963806;28;20243;-85
2022/08/31 09:11:49;;;;;;;32.38;24.73;;;;;;;25.59;67.38;101175.47;4962908;28;20169;-80
2022/08/31 09:14:31;;;;;;;33.60;24.98;;;;;;;25.76;66.59;101176.56;4964634;28;20054;-83
2022/08/31 09:17:15;;;;;;;40.25;31.08;;;;;;;25.49;65.95;101137.06;4967514;28;20549;-81
2022/08/31 09:19:59;;;;;;;31.98;24.13;;;;;;;25.32;65.86;101105.00;4984336;28;20065;-81
2022/08/31 09:22:47;;;;;;;32.78;25.95;;;;;;;25.20;65.57;101082.34;4968258;28;20208;-81
2022/08/31 09:25:28;;;;;;;31.20;23.67;;;;;;;25.99;65.44;101159.63;4986259;28;20057;-81
2022/08/31 09:27:59;;;;;;;24.63;20.13;;;;;;;25.70;66.20;101093.16;4966705;28;20042;-81
2022/08/31 09:30:43;;;;;;;25.73;21.10;;;;;;;26.07;65.10;101155.78;4965600;28;20141;-81
2022/08/31 09:33:27;;;;;;;31.48;22.80;;;;;;;25.95;64.57;101149.44;4965690;28;20056;-81
2022/08/31 09:36:15;;;;;;;30.35;20.73;;;;;;;25.98;64.87;101135.38;4965970;28;20551;-81
2022/08/31 09:38:45;;;;;;;27.77;22.15;;;;;;;26.04;65.44;101115.41;4966379;28;20128;-81
2022/08/31 09:41:23;;;;;;;25.27;19.52;;;;;;;25.87;64.61;101068.13;4966605;28;20107;-82
2022/08/31 09:43:50;;;;;;;31.33;21.60;;;;;;;26.35;63.79;101119.03;4967666;28;20049;-82
2022/08/31 09:46:26;;;;;;;29.08;21.67;;;;;;;26.30;63.90;101088.97;4968200;28;20180;-81
2022/08/31 09:48:57;;;;;;;26.10;18.83;;;;;;;26.74;63.37;101125.03;4985532;28;20585;-82
2022/08/31 09:51:33;;;;;;;26.17;18.73;;;;;;;26.74;63.74;101109.53;4980607;28;20085;-81
2022/08/31 09:57:03;;;;;;;24.27;18.63;;;;;;;26.91;63.19;101112.44;4989696;28;20061;-81
2022/08/31 09:59:42;;;;;;;26.15;19.55;;;;;;;27.38;61.90;101126.19;4966899;28;20050;-82
2022/08/31 10:02:12;;;;;;;23.17;18.50;;;;;;;26.77;60.69;101030.06;4983876;28;20053;-81
2022/08/31 10:05:05;;;;;;;20.15;17.80;;;;;;;25.99;61.10;100917.53;4984918;28;20057;-81
2022/08/31 10:07:36;;;;;;;21.27;18.95;;;;;;;26.54;61.25;101011.81;4986511;28;20057;-81
2022/08/31 10:10:09;;;;;;;23.00;19.27;;;;;;;27.19;61.36;101111.00;4968435;28;20421;-83
2022/08/31 10:13:05;;;;;;;25.52;20.27;;;;;;;27.36;59.52;101111.13;4969581;28;20140;-81
2022/08/31 10:15:42;;;;;;;21.45;19.20;;;;;;;27.04;60.47;101085.00;4986403;28;20065;-82
2022/08/31 10:18:36;;;;;;;25.13;18.83;;;;;;;27.27;60.27;101127.00;4968435;28;20516;-81
2022/08/31 10:21:12;;;;;;;21.95;16.30;;;;;;;26.67;60.70;101012.66;4968124;28;20521;-82
2022/08/31 10:23:53;;;;;;;17.73;14.75;;;;;;;27.42;60.60;101112.91;4968092;28;20054;-83
2022/08/31 10:26:35;;;;;;;;;;;;;;;27.44;59.88;101124.41;4987122;28;20057;-81
2022/08/31 10:29:12;;;;;;;17.40;14.70;;;;;;;27.40;59.74;101115.84;4969506;28;20428;-81
2022/08/31 10:31:52;;;;;;;17.67;14.73;;;;;;;27.35;60.25;101063.94;4969755;28;20077;-82
2022/08/31 10:37:30;;;;;;;15.70;14.10;;;;;;;28.03;58.01;101089.75;4986767;28;20137;-82
2022/08/31 10:40:05;;;;;;;17.00;15.32;;;;;;;27.89;58.25;101055.63;4973153;28;20088;-82
2022/08/31 10:42:45;;;;;;;23.35;15.02;;;;;;;27.72;58.35;101036.44;4974027;28;20053;-82
2022/08/31 10:45:22;;;;;;;20.40;13.95;;;;;;;28.01;58.77;101089.19;4969218;28;20559;-82
2022/08/31 10:47:53;;;;;;;18.27;15.10;;;;;;;27.60;58.37;101060.13;4986047;28;20049;-82
2022/08/31 10:50:37;;;;;;;19.52;15.35;;;;;;;27.92;59.07;101107.81;4968688;28;20447;-82
2022/08/31 10:53:32;;;;;;;14.80;12.50;;;;;;;26.71;59.32;100918.56;4986967;28;20137;-81
2022/08/31 10:56:15;;;;;;;18.10;16.20;;;;;;;27.91;58.95;101103.44;4969196;28;20053;-82
2022/08/31 10:59:09;;;;;;;17.25;14.77;;;;;;;27.53;58.79;101057.56;4967353;28;20054;-82
2022/08/31 11:01:59;;;;;;;16.52;13.75;;;;;;;27.61;59.06;101095.38;4965234;28;20050;-82
2022/08/31 11:04:35;;;;;;;22.10;13.10;;;;;;;27.55;58.95;101087.28;4985883;28;20058;-80
2022/08/31 11:07:30;;;;;;;14.00;12.55;;;;;;;26.99;59.82;100991.38;4983328;28;20313;-82
2022/08/31 11:10:18;;;;;;;15.38;13.98;;;;;;;27.64;58.82;101083.16;4942710;28;20124;-81
2022/08/31 11:12:52;;;;;;;21.27;13.95;;;;;;;26.76;58.95;100935.00;4981839;28;20497;-82
2022/08/31 11:15:38;;;;;;;17.80;14.75;;;;;;;27.72;58.54;101052.81;4967126;28;20064;-82
2022/08/31 11:18:23;;;;;;;15.48;11.85;;;;;;;28.02;58.80;101058.09;4965133;28;20057;-81
2022/08/31 11:21:20;;;;;;;16.73;13.95;;;;;;;28.19;57.48;101069.09;4978417;28;20045;-81
2022/08/31 11:24:27;;;;;;;18.52;12.77;;;;;;;27.55;57.96;100949.09;4962715;28;20054;-79
2022/08/31 11:26:57;;;;;;;19.40;13.25;;;;;;;28.42;56.81;101075.53;4973578;28;20514;-83
2022/08/31 11:30:01;;;;;;;16.77;12.93;;;;;;;28.81;55.94;101054.69;4966538;28;20272;-81
2022/08/31 11:32:33;;;;;;;;;;;;;;;28.85;55.66;101055.03;4964551;28;20090;-81
2022/08/31 11:35:07;;;;;;;11.77;10.68;;;;;;;29.03;56.15;101057.53;4966912;28;19936;-81
2022/08/31 11:37:54;;;;;;;15.70;12.18;;;;;;;29.28;54.61;101048.13;4966469;28;20045;-81
2022/08/31 11:40:42;;;;;;;12.55;10.77;;;;;;;29.53;53.89;101047.66;4972234;28;20231;-82
2022/08/31 11:43:34;;;;;;;14.95;11.77;;;;;;;28.55;53.77;100862.25;4968289;28;20927;-82
2022/08/31 11:46:25;;;;;;;13.05;11.60;;;;;;;30.08;52.73;101045.94;4969002;28;20046;-80
2022/08/31 11:48:53;;;;;;;20.45;11.20;;;;;;;30.39;52.61;101047.97;4979707;28;20057;-80
2022/08/31 11:51:31;;;;;;;15.18;11.60;;;;;;;29.84;51.86;100931.25;4989320;28;20527;-81